createdAt,value
2019-04-27T00:01:48.301Z,6.80
2019-04-27T00:06:08.246Z,6.70
2019-04-27T00:10:35.661Z,6.60
2019-04-27T00:14:48.441Z,6.50
2019-04-27T00:19:13.233Z,6.50
2019-04-27T00:23:23.747Z,6.50
2019-04-27T00:27:33.526Z,6.40
2019-04-27T00:31:43.521Z,6.30
2019-04-27T00:35:57.547Z,6.30
2019-04-27T00:40:16.069Z,6.30
2019-04-27T00:44:24.855Z,6.20
2019-04-27T00:48:34.086Z,6.20
2019-04-27T00:52:43.106Z,6.10
2019-04-27T00:57:20.510Z,6.10
2019-04-27T01:01:33.356Z,6.00
2019-04-27T01:05:43.079Z,6.00
2019-04-27T01:09:52.807Z,6.00
2019-04-27T01:14:01.767Z,5.90
2019-04-27T01:18:14.946Z,5.90
2019-04-27T01:22:21.366Z,5.90
2019-04-27T01:27:01.442Z,6.00
2019-04-27T01:31:11.833Z,6.00
2019-04-27T01:35:20.980Z,6.00
2019-04-27T01:39:29.838Z,6.00
2019-04-27T01:43:38.858Z,6.10
2019-04-27T01:47:49.256Z,6.20
2019-04-27T01:51:59.455Z,6.20
2019-04-27T01:56:09.208Z,6.30
2019-04-27T02:00:46.710Z,6.50
2019-04-27T02:05:13.333Z,6.50
2019-04-27T02:09:24.314Z,6.50
2019-04-27T02:13:33.223Z,6.50
2019-04-27T02:17:42.047Z,6.50
2019-04-27T02:21:51.568Z,6.60
2019-04-27T02:26:00.805Z,6.70
2019-04-27T02:30:24.098Z,6.70
2019-04-27T02:34:39.743Z,6.80
2019-04-27T02:38:49.165Z,7.00
2019-04-27T02:42:59.853Z,7.10
2019-04-27T02:47:10.439Z,7.30
2019-04-27T02:51:26.872Z,7.50
2019-04-27T02:55:35.655Z,7.60
2019-04-27T02:59:44.439Z,7.70
2019-04-27T03:03:53.896Z,7.60
2019-04-27T03:08:02.821Z,7.60
2019-04-27T03:12:13.107Z,7.70
2019-04-27T03:16:39.278Z,7.70
2019-04-27T03:21:13.017Z,7.60
2019-04-27T03:25:40.399Z,7.60
2019-04-27T03:29:50.023Z,7.50
2019-04-27T03:34:04.808Z,7.70
2019-04-27T03:38:10.384Z,7.80
2019-04-27T03:42:20.875Z,8.00
2019-04-27T03:46:30.335Z,8.30
2019-04-27T03:50:50.663Z,8.50
2019-04-27T03:55:05.960Z,8.60
2019-04-27T03:59:22.225Z,8.70
2019-04-27T04:03:31.335Z,8.80
2019-04-27T04:07:40.907Z,8.90
2019-04-27T04:12:12.387Z,8.90
2019-04-27T04:16:35.681Z,8.90
2019-04-27T04:20:44.845Z,8.90
2019-04-27T04:24:53.650Z,8.90
2019-04-27T04:29:02.503Z,9.00
2019-04-27T04:33:11.266Z,9.10
2019-04-27T04:37:20.502Z,9.20
2019-04-27T04:41:50.925Z,9.30
2019-04-27T04:46:19.125Z,9.30
2019-04-27T04:50:27.382Z,9.40
2019-04-27T04:54:36.607Z,9.40
2019-04-27T04:58:45.555Z,9.40
2019-04-27T05:02:54.366Z,9.50
2019-04-27T05:07:03.599Z,9.50
2019-04-27T05:11:12.390Z,9.50
2019-04-27T05:15:21.280Z,9.50
2019-04-27T05:19:31.065Z,9.50
2019-04-27T05:23:40.161Z,9.50
2019-04-27T05:27:49.338Z,9.40
2019-04-27T05:31:59.247Z,9.40
2019-04-27T05:36:09.175Z,9.50
2019-04-27T05:40:18.916Z,9.50
2019-04-27T05:44:56.162Z,9.60
2019-04-27T05:49:07.805Z,9.60
2019-04-27T05:53:18.929Z,9.70
2019-04-27T05:57:30.996Z,9.80
2019-04-27T06:01:39.277Z,9.70
2019-04-27T06:05:48.942Z,9.70
2019-04-27T06:09:59.545Z,9.80
2019-04-27T06:14:09.721Z,9.80
2019-04-27T06:18:19.044Z,9.90
2019-04-27T06:22:29.555Z,9.90
2019-04-27T06:26:39.913Z,10.00
2019-04-27T06:30:49.256Z,10.00
2019-04-27T06:34:58.965Z,10.10
2019-04-27T06:39:09.773Z,10.10
2019-04-27T06:43:19.007Z,10.10
2019-04-27T06:47:29.455Z,10.10
2019-04-27T06:51:40.010Z,10.20
2019-04-27T06:55:49.747Z,10.20
2019-04-27T06:59:59.140Z,10.30
2019-04-27T07:04:08.881Z,10.30
2019-04-27T07:08:18.756Z,10.30
2019-04-27T07:12:28.805Z,10.30
2019-04-27T07:16:39.199Z,10.50
2019-04-27T07:20:48.534Z,10.60
2019-04-27T07:24:59.002Z,10.60
2019-04-27T07:29:09.640Z,10.90
2019-04-27T07:33:18.718Z,11.20
2019-04-27T07:37:29.270Z,11.30
2019-04-27T07:41:38.773Z,11.10
2019-04-27T07:45:49.386Z,11.10
2019-04-27T07:49:59.581Z,11.40
2019-04-27T07:54:09.052Z,11.50
2019-04-27T07:58:20.534Z,11.50
2019-04-27T08:02:29.092Z,11.70
2019-04-27T08:06:38.737Z,11.60
2019-04-27T08:10:50.165Z,11.70
2019-04-27T08:15:00.041Z,12.10
2019-04-27T08:19:09.875Z,12.50
2019-04-27T08:23:19.606Z,12.30
2019-04-27T08:27:41.346Z,12.10
2019-04-27T08:31:54.756Z,11.90
2019-04-27T08:36:03.624Z,11.90
2019-04-27T08:40:12.677Z,11.90
2019-04-27T08:44:21.722Z,12.00
2019-04-27T08:48:36.005Z,11.80
2019-04-27T08:52:41.954Z,11.80
2019-04-27T08:56:51.669Z,11.90
2019-04-27T09:01:00.473Z,11.80
2019-04-27T09:05:09.775Z,11.50
2019-04-27T09:09:34.898Z,11.70
2019-04-27T09:13:50.992Z,12.00
2019-04-27T09:18:05.512Z,12.40
2019-04-27T09:22:16.525Z,12.50
2019-04-27T09:26:26.461Z,12.60
2019-04-27T09:30:35.742Z,12.60
2019-04-27T09:34:44.538Z,12.70
2019-04-27T09:38:53.342Z,12.80
2019-04-27T09:43:02.518Z,12.40
2019-04-27T09:47:11.422Z,11.90
2019-04-27T09:51:20.378Z,11.60
2019-04-27T09:55:29.191Z,11.60
2019-04-27T09:59:39.764Z,11.60
2019-04-27T10:03:49.342Z,11.40
2019-04-27T10:07:58.475Z,11.50
2019-04-27T10:12:07.816Z,11.80
2019-04-27T10:16:16.695Z,11.70
2019-04-27T10:20:25.512Z,11.60
2019-04-27T10:24:42.176Z,11.50
2019-04-27T10:28:59.195Z,11.50
2019-04-27T10:33:08.311Z,11.40
2019-04-27T10:37:17.211Z,11.40
2019-04-27T10:41:26.066Z,11.50
2019-04-27T10:45:35.769Z,11.80
2019-04-27T10:49:48.043Z,12.10
2019-04-27T10:53:56.126Z,12.40
2019-04-27T10:58:05.381Z,12.60
2019-04-27T11:02:14.209Z,12.60
2019-04-27T11:06:40.798Z,12.50
2019-04-27T11:10:49.769Z,12.40
2019-04-27T11:14:58.943Z,12.20
2019-04-27T11:19:08.356Z,11.90
2019-04-27T11:23:17.151Z,11.70
2019-04-27T11:27:25.999Z,12.10
2019-04-27T11:31:36.357Z,13.00
2019-04-27T11:36:10.467Z,13.40
2019-04-27T11:40:21.520Z,13.30
2019-04-27T11:44:30.362Z,12.60
2019-04-27T11:48:39.121Z,12.00
2019-04-27T11:52:48.570Z,11.00
2019-04-27T11:56:57.471Z,10.60
2019-04-27T12:01:06.790Z,10.80
2019-04-27T12:05:17.121Z,11.10
2019-04-27T12:09:26.021Z,11.80
2019-04-27T12:13:35.946Z,11.80
2019-04-27T12:17:46.092Z,11.90
2019-04-27T12:21:56.501Z,12.40
2019-04-27T12:26:06.015Z,12.70
2019-04-27T12:30:26.152Z,12.30
2019-04-27T12:34:36.148Z,12.00
2019-04-27T12:38:46.687Z,12.00
2019-04-27T12:42:55.749Z,12.30
2019-04-27T12:47:06.308Z,12.70
2019-04-27T12:51:15.594Z,13.40
2019-04-27T12:55:42.385Z,14.20
2019-04-27T13:00:13.929Z,14.10
2019-04-27T13:04:22.762Z,13.90
2019-04-27T13:08:31.646Z,13.50
2019-04-27T13:12:40.612Z,12.90
2019-04-27T13:16:49.432Z,13.30
2019-04-27T13:20:58.318Z,14.10
2019-04-27T13:25:09.038Z,14.80
2019-04-27T13:29:17.899Z,15.30
2019-04-27T13:33:27.039Z,14.80
2019-04-27T13:37:40.545Z,15.20
2019-04-27T13:41:49.729Z,15.40
2019-04-27T13:46:23.517Z,15.60
2019-04-27T13:50:38.865Z,15.60
2019-04-27T13:54:47.855Z,14.70
2019-04-27T13:58:58.356Z,14.30
2019-04-27T14:03:07.606Z,13.50
2019-04-27T14:07:16.672Z,12.70
2019-04-27T14:11:25.594Z,12.40
2019-04-27T14:15:34.546Z,12.60
2019-04-27T14:19:43.613Z,13.10
2019-04-27T14:23:52.410Z,13.40
2019-04-27T14:28:01.286Z,13.80
2019-04-27T14:32:10.426Z,14.60
2019-04-27T14:36:19.209Z,15.70
2019-04-27T14:40:28.832Z,16.00
2019-04-27T14:44:38.973Z,16.30
2019-04-27T14:48:48.074Z,15.60
2019-04-27T14:52:58.889Z,15.50
2019-04-27T14:57:09.106Z,15.80
2019-04-27T15:01:18.792Z,15.30
2019-04-27T15:05:29.192Z,15.80
2019-04-27T15:09:38.449Z,15.60
2019-04-27T15:13:48.697Z,15.50
2019-04-27T15:18:04.370Z,15.60
2019-04-27T15:22:19.243Z,15.40
2019-04-27T15:26:23.423Z,15.10
2019-04-27T15:30:48.722Z,14.80
2019-04-27T15:35:09.805Z,14.90
2019-04-27T15:39:30.567Z,14.50
2019-04-27T15:43:41.245Z,14.00
2019-04-27T15:47:54.344Z,13.30
2019-04-27T15:52:04.441Z,12.90
2019-04-27T15:56:12.450Z,13.30
2019-04-27T16:00:28.991Z,13.30
2019-04-27T16:04:39.858Z,13.40
2019-04-27T16:08:49.248Z,13.20
2019-04-27T16:13:06.703Z,13.10
2019-04-27T16:17:11.416Z,12.60
2019-04-27T16:21:20.222Z,12.30
2019-04-27T16:25:31.516Z,12.00
2019-04-27T16:29:39.959Z,11.60
2019-04-27T16:33:49.964Z,10.90
2019-04-27T16:38:38.794Z,10.50
2019-04-27T16:42:50.645Z,10.30
2019-04-27T16:46:59.239Z,10.90
2019-04-27T16:51:08.687Z,11.40
2019-04-27T16:55:19.927Z,11.30
2019-04-27T16:59:43.039Z,11.50
2019-04-27T17:03:41.392Z,11.60
2019-04-27T17:07:50.615Z,11.90
2019-04-27T17:11:59.471Z,12.10
2019-04-27T17:16:39.008Z,11.60
2019-04-27T17:20:52.677Z,11.00
2019-04-27T17:25:01.373Z,10.50
2019-04-27T17:29:16.283Z,11.20
2019-04-27T17:33:31.729Z,11.10
2019-04-27T17:37:40.674Z,10.50
2019-04-27T17:41:52.861Z,10.40
2019-04-27T17:46:00.207Z,11.40
2019-04-27T17:50:09.449Z,12.90
2019-04-27T17:54:18.682Z,12.80
2019-04-27T17:58:28.642Z,12.40
2019-04-27T18:02:42.398Z,12.10
2019-04-27T18:06:49.014Z,11.80
2019-04-27T18:11:03.080Z,11.50
2019-04-27T18:15:10.528Z,11.00
2019-04-27T18:19:30.930Z,10.40
2019-04-27T18:23:41.426Z,9.90
2019-04-27T18:28:14.709Z,9.60
2019-04-27T18:32:18.387Z,9.40
2019-04-27T18:36:27.391Z,9.20
2019-04-27T18:40:38.447Z,9.00
2019-04-27T18:44:48.609Z,8.90
2019-04-27T18:49:22.616Z,8.80
2019-04-27T18:53:32.178Z,8.80
2019-04-27T18:57:41.072Z,8.70
2019-04-27T19:01:50.271Z,8.40
2019-04-27T19:05:59.599Z,8.30
2019-04-27T19:10:09.168Z,8.20
2019-04-27T19:14:18.945Z,8.00
2019-04-27T19:18:28.368Z,7.90
2019-04-27T19:22:38.649Z,7.80
2019-04-27T19:27:16.143Z,7.70
2019-04-27T19:31:23.785Z,7.60
2019-04-27T19:35:33.056Z,7.50
2019-04-27T19:39:41.977Z,7.50
2019-04-27T19:43:51.145Z,7.40
2019-04-27T19:48:00.526Z,7.30
2019-04-27T19:52:09.738Z,7.30
2019-04-27T19:56:19.312Z,7.30
2019-04-27T20:00:39.807Z,7.20
2019-04-27T20:04:54.505Z,7.20
2019-04-27T20:09:11.267Z,7.10
2019-04-27T20:13:21.999Z,7.10
2019-04-27T20:17:32.001Z,7.10
2019-04-27T20:21:40.929Z,7.20
2019-04-27T20:25:50.588Z,7.20
2019-04-27T20:30:00.697Z,7.20
2019-04-27T20:34:10.686Z,7.30
2019-04-27T20:38:21.427Z,7.30
2019-04-27T20:42:31.462Z,7.30
2019-04-27T20:46:41.462Z,7.30
2019-04-27T20:50:51.296Z,7.40
2019-04-27T20:55:01.514Z,7.40
2019-04-27T20:59:10.888Z,7.40
2019-04-27T21:03:33.938Z,7.40
2019-04-27T21:07:46.731Z,7.40
2019-04-27T21:11:55.565Z,7.40
2019-04-27T21:16:04.644Z,7.50
2019-04-27T21:20:14.124Z,7.40
2019-04-27T21:24:23.163Z,7.40
2019-04-27T21:28:32.699Z,7.40
2019-04-27T21:32:41.578Z,7.40
2019-04-27T21:36:51.022Z,7.50
2019-04-27T21:41:00.482Z,7.50
2019-04-27T21:45:11.255Z,7.50
2019-04-27T21:49:22.083Z,7.50
2019-04-27T21:53:51.470Z,7.50
2019-04-27T21:58:01.481Z,7.60
2019-04-27T22:02:12.101Z,7.60
2019-04-27T22:06:21.319Z,7.60
2019-04-27T22:10:31.052Z,7.60
2019-04-27T22:14:40.095Z,7.60
2019-04-27T22:18:49.552Z,7.70
2019-04-27T22:23:01.651Z,7.70
2019-04-27T22:27:10.546Z,7.70
2019-04-27T22:31:21.035Z,7.70
2019-04-27T22:35:31.319Z,7.70
2019-04-27T22:39:50.939Z,7.60
2019-04-27T22:44:21.956Z,7.60
2019-04-27T22:48:32.850Z,7.60
2019-04-27T22:52:41.685Z,7.50
2019-04-27T22:56:51.565Z,7.50
2019-04-27T23:01:29.071Z,7.50
2019-04-27T23:05:38.067Z,7.50
2019-04-27T23:09:47.742Z,7.40
2019-04-27T23:13:56.640Z,7.40
2019-04-27T23:18:05.744Z,7.50
2019-04-27T23:22:14.612Z,7.50
2019-04-27T23:26:23.477Z,7.50
2019-04-27T23:30:48.426Z,7.40
2019-04-27T23:34:57.356Z,7.40
2019-04-27T23:39:07.580Z,7.50
2019-04-27T23:43:16.510Z,7.50
2019-04-27T23:47:25.455Z,7.50
2019-04-27T23:51:46.467Z,7.50
2019-04-27T23:55:58.255Z,7.50
